メインページ
METAR-TAF:

METAR-TAF

空港 :

リマ, ペルー

ホルヘ・チャベス国際空港

緯度: 12-00S, 経度: 077-07W, 海抜: 12m

現時点の気象観測

当レポートは24分前の21:00(UTC)に作成
西の風 8kt
気温 19°C
湿度 68%
気圧 1011 hPa
視程10km以上
高度1600ftの雲は散在している

METAR: SPJC 202100Z 26008KT 9999 SCT016 19/13 Q1011 NOSIG RMK PP000

時間: 16:24 (21:24 UTC)

予報

当レポートは2時間44分前の18:40(UTC)に作成
予報は20日の 18時(UTC)から 21日の 18時(UTC)まで有効
西の風 7kt
視程10km以上
高度1800ftの雲はほとんどない
20日の 20時(UTC)から 20日の 22時(UTC)まで徐々に
の風 10kt
21日の 00時(UTC)から 21日の 00時(UTC)まで徐々に
高度1200ftの曇り
21日の 0600時(UTC)から
の風 5kt
視程10km以上
高度1000ftの曇り

TAF: SPJC 201840Z 2018/2118 27007KT 9999 FEW018 TX19/2019Z TN14/2110Z BECMG 2020/2022 18010KT BECMG 2100/21002 OVC012 FM210600 17005KT 9999 OVC010

4,000以上の空港の気象観測と天気予報(METAR報とTAF報)

利用可能な観測所は地図上に黄色い丸と赤い丸で示す。

丸の上にカーソルを重ねると観測所名を参照できる。

次にクリックすると気象観測と天気予報を参照できる。

マップの切り替え:黒色「×」印の緑ボタンをクリックして拡大、「-」印の緑ボタンをクリックして縮小、緑色の三角印をクリックして隣りの地図に切り替え


METAR-TAF: